createdAt,value
2023-01-25T00:07:56.563Z,0.56
2023-01-25T00:17:56.587Z,0.59
2023-01-25T00:27:56.782Z,0.59
2023-01-25T00:37:56.731Z,0.55
2023-01-25T00:47:56.699Z,0.59
2023-01-25T00:57:56.732Z,0.61
2023-01-25T01:07:56.637Z,0.58
2023-01-25T01:17:56.695Z,0.59
2023-01-25T01:27:56.687Z,0.59
2023-01-25T01:37:56.691Z,0.57
2023-01-25T01:47:56.657Z,0.58
2023-01-25T01:57:56.690Z,0.57
2023-01-25T02:07:56.679Z,0.59
2023-01-25T02:17:56.698Z,0.57
2023-01-25T02:27:56.681Z,0.57
2023-01-25T02:37:56.713Z,0.57
2023-01-25T02:47:56.700Z,0.6
2023-01-25T02:57:56.729Z,0.6
2023-01-25T03:07:56.693Z,0.61
2023-01-25T03:17:56.763Z,0.64
2023-01-25T03:27:56.696Z,0.63
2023-01-25T03:37:56.747Z,0.62
2023-01-25T03:47:56.730Z,0.64
2023-01-25T03:57:56.758Z,0.66
2023-01-25T04:07:56.744Z,0.64
2023-01-25T04:17:56.731Z,0.66
2023-01-25T04:27:56.726Z,0.7
2023-01-25T04:37:56.802Z,0.72
2023-01-25T04:47:56.763Z,0.73
2023-01-25T04:57:56.773Z,0.8
2023-01-25T05:07:56.733Z,0.84
2023-01-25T05:17:56.794Z,0.88
2023-01-25T05:27:56.752Z,0.8
2023-01-25T05:37:56.781Z,0.75
2023-01-25T05:47:56.795Z,0.72
2023-01-25T05:57:56.816Z,0.74
2023-01-25T06:07:56.787Z,0.69
2023-01-25T06:17:56.830Z,0.74
2023-01-25T06:27:56.804Z,0.72
2023-01-25T06:37:56.845Z,0.71
2023-01-25T06:47:56.825Z,0.76
2023-01-25T06:57:56.831Z,0.84
2023-01-25T07:07:56.845Z,0.87
2023-01-25T07:18:03.147Z,1.01
2023-01-25T07:27:56.835Z,1.12
2023-01-25T07:37:56.861Z,1.29
2023-01-25T07:47:56.827Z,1.38
2023-01-25T07:57:56.852Z,1.47
2023-01-25T08:07:56.833Z,1.57
2023-01-25T08:17:56.907Z,1.66
2023-01-25T08:27:56.861Z,1.69
2023-01-25T08:37:56.899Z,1.73
2023-01-25T08:47:56.859Z,1.83
2023-01-25T08:57:57.585Z,2
2023-01-25T09:07:56.878Z,2.03
2023-01-25T09:17:56.888Z,2.11
2023-01-25T09:27:56.864Z,2.26
2023-01-25T09:37:56.911Z,2.17
2023-01-25T09:47:56.897Z,2.49
2023-01-25T09:57:56.963Z,3.22
2023-01-25T10:07:56.904Z,3.07
2023-01-25T10:17:56.927Z,3.01
2023-01-25T10:27:56.901Z,3.28
2023-01-25T10:37:56.920Z,3.29
2023-01-25T10:47:56.928Z,3.03
2023-01-25T10:57:56.939Z,3.11
2023-01-25T11:07:56.908Z,3.46
2023-01-25T11:17:56.925Z,3.9
2023-01-25T11:27:56.917Z,4.21
2023-01-25T11:37:56.945Z,4.35
2023-01-25T11:47:56.955Z,4.51
2023-01-25T11:57:56.939Z,4.64
2023-01-25T12:07:56.944Z,4.31
2023-01-25T12:17:56.952Z,4.31
2023-01-25T12:27:56.946Z,4.28
2023-01-25T12:37:56.938Z,4.26
2023-01-25T12:47:56.915Z,4.19
2023-01-25T12:57:56.958Z,4.34
2023-01-25T13:07:56.967Z,4.23
2023-01-25T13:17:56.947Z,4.44
2023-01-25T13:27:56.948Z,4.23
2023-01-25T13:37:56.952Z,4.3
2023-01-25T13:47:56.970Z,4.2
2023-01-25T13:57:57.000Z,4.2
2023-01-25T14:07:56.943Z,4.01
2023-01-25T14:18:04.595Z,3.93
2023-01-25T14:27:56.941Z,3.73
2023-01-25T14:37:56.988Z,3.45
2023-01-25T14:47:59.356Z,3.31
2023-01-25T14:57:56.982Z,3.14
2023-01-25T15:07:56.964Z,2.99
2023-01-25T15:17:57.020Z,2.77
2023-01-25T15:27:56.943Z,2.57
2023-01-25T15:37:56.973Z,2.38
2023-01-25T15:47:56.968Z,2.26
2023-01-25T15:57:57.029Z,2.1
2023-01-25T16:07:56.964Z,2.01
2023-01-25T16:17:57.029Z,1.88
2023-01-25T16:27:56.990Z,1.82
2023-01-25T16:37:57.001Z,1.72
2023-01-25T16:47:57.015Z,1.62
2023-01-25T16:57:57.023Z,1.51
2023-01-25T17:07:56.988Z,1.54
2023-01-25T17:17:57.057Z,1.49
2023-01-25T17:27:57.019Z,1.46
2023-01-25T17:37:57.061Z,1.5
2023-01-25T17:47:57.013Z,1.5
2023-01-25T17:57:57.064Z,1.5
2023-01-25T18:07:57.063Z,1.51
2023-01-25T18:17:57.060Z,1.48
2023-01-25T18:27:57.065Z,1.42
2023-01-25T18:37:57.053Z,1.39
2023-01-25T18:47:57.043Z,1.31
2023-01-25T18:57:57.068Z,1.31
2023-01-25T19:07:57.082Z,1.26
2023-01-25T19:17:57.097Z,1.21
2023-01-25T19:27:57.091Z,1.14
2023-01-25T19:37:57.110Z,1.12
2023-01-25T19:47:57.090Z,1.05
2023-01-25T19:57:57.167Z,1.01
2023-01-25T20:07:57.110Z,0.97
2023-01-25T20:17:57.121Z,0.98
2023-01-25T20:27:57.104Z,0.94
2023-01-25T20:37:57.111Z,0.89
2023-01-25T20:47:57.100Z,0.82
2023-01-25T20:57:57.151Z,0.83
2023-01-25T21:07:57.139Z,0.82
2023-01-25T21:17:57.134Z,0.83
2023-01-25T21:27:57.129Z,0.8
2023-01-25T21:37:57.163Z,0.71
2023-01-25T21:47:57.145Z,0.73
2023-01-25T21:57:57.166Z,0.73
2023-01-25T22:07:57.156Z,0.73
2023-01-25T22:17:57.191Z,0.75
2023-01-25T22:27:57.131Z,0.73
2023-01-25T22:37:57.186Z,0.69
2023-01-25T22:47:57.171Z,0.69
2023-01-25T22:57:57.183Z,0.69
2023-01-25T23:07:57.196Z,0.67
2023-01-25T23:17:57.211Z,0.66
2023-01-25T23:27:57.197Z,0.67
2023-01-25T23:37:57.211Z,0.63
2023-01-25T23:47:57.211Z,0.6
2023-01-25T23:57:57.230Z,0.62
